createdAt,value
2023-06-22T00:02:56.576Z,100647.13
2023-06-22T00:05:59.060Z,100638.13
2023-06-22T00:09:01.461Z,100625.94
2023-06-22T00:12:04.146Z,100625.66
2023-06-22T00:15:06.962Z,100601.31
2023-06-22T00:18:09.661Z,100598.66
2023-06-22T00:21:13.715Z,100599.47
2023-06-22T00:24:16.104Z,100600.25
2023-06-22T00:27:18.505Z,100593.38
2023-06-22T00:30:20.878Z,100593.59
2023-06-22T00:33:23.261Z,100587.00
2023-06-22T00:36:25.966Z,100587.78
2023-06-22T00:39:28.332Z,100596.53
2023-06-22T00:42:30.812Z,100608.19
2023-06-22T00:45:33.251Z,100616.91
2023-06-22T00:48:37.825Z,100620.63
2023-06-22T00:51:40.821Z,100623.50
2023-06-22T00:54:46.623Z,100632.78
2023-06-22T00:57:49.190Z,100634.34
2023-06-22T01:00:52.702Z,100637.25
2023-06-22T01:03:58.776Z,100646.25
2023-06-22T01:07:12.048Z,100629.06
2023-06-22T01:10:26.555Z,100637.50
2023-06-22T01:13:41.029Z,100637.78
2023-06-22T01:16:45.161Z,100639.88
2023-06-22T01:19:59.849Z,100656.03
2023-06-22T01:23:20.880Z,100672.41
2023-06-22T01:26:44.937Z,100674.31
2023-06-22T01:29:47.309Z,100667.91
2023-06-22T01:32:49.858Z,100684.88
2023-06-22T01:35:52.284Z,100680.06
2023-06-22T01:38:54.822Z,100685.91
2023-06-22T01:41:57.176Z,100687.47
2023-06-22T01:44:59.577Z,100697.78
2023-06-22T01:48:02.028Z,100698.84
2023-06-22T01:51:04.523Z,100694.09
2023-06-22T01:54:07.540Z,100679.84
2023-06-22T01:57:11.684Z,100686.94
2023-06-22T02:00:17.051Z,100690.38
2023-06-22T02:03:24.697Z,100698.34
2023-06-22T02:06:38.866Z,100704.34
2023-06-22T02:09:41.954Z,100697.78
2023-06-22T02:12:44.524Z,100693.81
2023-06-22T02:15:46.931Z,100692.53
2023-06-22T02:18:52.170Z,100690.69
2023-06-22T02:21:54.534Z,100690.38
2023-06-22T02:24:57.497Z,100687.16
2023-06-22T02:28:01.380Z,100702.50
2023-06-22T02:34:05.905Z,100694.06
2023-06-22T02:37:08.318Z,100693.31
2023-06-22T02:40:11.462Z,100705.94
2023-06-22T02:43:14.179Z,100701.69
2023-06-22T02:46:16.617Z,100703.78
2023-06-22T02:49:19.863Z,100692.19
2023-06-22T02:52:22.642Z,100693.22
2023-06-22T02:55:25.021Z,100698.75
2023-06-22T02:58:39.381Z,100701.16
2023-06-22T03:01:45.093Z,100703.16
2023-06-22T03:04:58.745Z,100708.38
2023-06-22T03:08:01.207Z,100716.06
2023-06-22T03:11:07.027Z,100710.06
2023-06-22T03:14:09.370Z,100720.06
2023-06-22T03:17:12.507Z,100718.00
2023-06-22T03:20:14.970Z,100694.59
2023-06-22T03:23:17.479Z,100726.66
2023-06-22T03:26:20.135Z,100735.66
2023-06-22T03:29:22.574Z,100736.97
2023-06-22T03:32:26.590Z,100738.28
2023-06-22T03:35:29.129Z,100742.75
2023-06-22T03:38:31.965Z,100728.19
2023-06-22T03:41:34.327Z,100731.72
2023-06-22T03:44:37.623Z,100737.84
2023-06-22T03:47:42.249Z,100738.34
2023-06-22T03:50:45.209Z,100736.56
2023-06-22T03:53:47.683Z,100732.63
2023-06-22T03:56:50.036Z,100732.34
2023-06-22T03:59:52.364Z,100732.63
2023-06-22T04:02:54.777Z,100726.28
2023-06-22T04:05:57.200Z,100735.03
2023-06-22T04:08:59.531Z,100734.28
2023-06-22T04:12:02.896Z,100730.81
2023-06-22T04:15:05.761Z,100737.50
2023-06-22T04:18:08.170Z,100732.47
2023-06-22T04:21:11.590Z,100737.81
2023-06-22T04:24:13.977Z,100737.03
2023-06-22T04:27:16.364Z,100742.38
2023-06-22T04:30:19.073Z,100742.34
2023-06-22T04:33:21.512Z,100750.81
2023-06-22T04:36:26.093Z,100756.63
2023-06-22T04:39:28.816Z,100748.69
2023-06-22T04:42:31.596Z,100751.63
2023-06-22T04:45:34.281Z,100740.53
2023-06-22T04:48:36.624Z,100735.47
2023-06-22T04:51:42.458Z,100736.28
2023-06-22T04:54:51.899Z,100736.50
2023-06-22T04:57:54.516Z,100741.59
2023-06-22T05:00:58.279Z,100744.25
2023-06-22T05:04:02.522Z,100724.38
2023-06-22T05:07:05.332Z,100737.88
2023-06-22T05:10:08.123Z,100745.28
2023-06-22T05:13:10.522Z,100746.84
2023-06-22T05:16:12.913Z,100749.25
2023-06-22T05:19:15.296Z,100749.53
2023-06-22T05:22:17.729Z,100755.63
2023-06-22T05:25:20.439Z,100755.38
2023-06-22T05:28:24.277Z,100758.06
2023-06-22T05:31:26.958Z,100754.38
2023-06-22T05:34:29.484Z,100749.06
2023-06-22T05:37:31.866Z,100755.44
2023-06-22T05:40:34.253Z,100758.34
2023-06-22T05:43:36.636Z,100757.84
2023-06-22T05:46:45.414Z,100755.97
2023-06-22T05:49:47.972Z,100752.56
2023-06-22T05:52:50.343Z,100762.63
2023-06-22T05:55:53.070Z,100758.38
2023-06-22T05:58:55.446Z,100762.66
2023-06-22T06:01:57.823Z,100760.00
2023-06-22T06:05:00.187Z,100759.72
2023-06-22T06:08:03.005Z,100753.34
2023-06-22T06:11:05.359Z,100756.78
2023-06-22T06:14:07.743Z,100764.75
2023-06-22T06:17:10.106Z,100765.53
2023-06-22T06:20:13.290Z,100768.69
2023-06-22T06:23:15.636Z,100772.69
2023-06-22T06:26:18.230Z,100779.00
2023-06-22T06:29:20.623Z,100781.69
2023-06-22T06:32:23.124Z,100775.03
2023-06-22T06:35:25.554Z,100770.00
2023-06-22T06:38:27.945Z,100767.34
2023-06-22T06:41:30.353Z,100764.44
2023-06-22T06:44:32.754Z,100767.03
2023-06-22T06:47:35.435Z,100764.88
2023-06-22T06:50:37.844Z,100764.03
2023-06-22T06:53:40.293Z,100762.94
2023-06-22T06:56:46.078Z,100769.53
2023-06-22T06:59:48.469Z,100765.44
2023-06-22T07:02:50.982Z,100765.94
2023-06-22T07:05:53.372Z,100769.34
2023-06-22T07:08:56.630Z,100762.41
2023-06-22T07:11:58.965Z,100757.03
2023-06-22T07:15:12.844Z,100759.09
2023-06-22T07:18:15.289Z,100753.44
2023-06-22T07:21:17.695Z,100745.09
2023-06-22T07:24:21.037Z,100749.19
2023-06-22T07:27:23.408Z,100745.94
2023-06-22T07:30:25.982Z,100741.66
2023-06-22T07:33:28.967Z,100736.53
2023-06-22T07:36:31.382Z,100737.38
2023-06-22T07:39:33.879Z,100750.69
2023-06-22T07:42:36.253Z,100738.06
2023-06-22T07:45:41.460Z,100748.03
2023-06-22T07:48:45.051Z,100751.00
2023-06-22T07:51:47.406Z,100727.13
2023-06-22T07:54:49.744Z,100742.09
2023-06-22T07:57:53.318Z,100732.41
2023-06-22T08:00:55.750Z,100739.25
2023-06-22T08:03:58.118Z,100747.47
2023-06-22T08:07:00.573Z,100738.28
2023-06-22T08:10:03.724Z,100730.44
2023-06-22T08:13:06.271Z,100742.16
2023-06-22T08:16:08.834Z,100743.50
2023-06-22T08:19:11.224Z,100746.56
2023-06-22T08:22:13.544Z,100736.25
2023-06-22T08:25:15.997Z,100732.91
2023-06-22T08:28:18.445Z,100736.09
2023-06-22T08:31:20.981Z,100738.69
2023-06-22T08:34:24.031Z,100739.91
2023-06-22T08:37:31.508Z,100740.13
2023-06-22T08:40:33.927Z,100745.84
2023-06-22T08:43:36.319Z,100748.22
2023-06-22T08:46:40.124Z,100744.44
2023-06-22T08:49:42.516Z,100739.09
2023-06-22T08:52:45.005Z,100738.44
2023-06-22T08:55:47.420Z,100749.56
2023-06-22T08:58:49.796Z,100736.47
2023-06-22T09:01:52.225Z,100728.09
2023-06-22T09:04:57.040Z,100718.25
2023-06-22T09:07:59.898Z,100723.78
2023-06-22T09:11:02.278Z,100731.44
2023-06-22T09:14:05.428Z,100729.19
2023-06-22T09:17:07.821Z,100722.03
2023-06-22T09:20:12.229Z,100727.88
2023-06-22T09:23:14.695Z,100715.94
2023-06-22T09:26:17.293Z,100719.72
2023-06-22T09:29:19.755Z,100714.56
2023-06-22T09:32:22.102Z,100710.47
2023-06-22T09:35:24.438Z,100698.69
2023-06-22T09:38:26.967Z,100701.38
2023-06-22T09:41:29.352Z,100706.59
2023-06-22T09:44:31.706Z,100695.22
2023-06-22T09:47:34.167Z,100691.25
2023-06-22T09:50:37.720Z,100688.44
2023-06-22T09:53:40.119Z,100684.78
2023-06-22T09:56:42.474Z,100689.59
2023-06-22T09:59:44.874Z,100683.59
2023-06-22T10:02:47.742Z,100684.13
2023-06-22T10:05:50.686Z,100680.34
2023-06-22T10:08:53.135Z,100689.19
2023-06-22T10:11:55.555Z,100684.66
2023-06-22T10:14:57.923Z,100674.19
2023-06-22T10:18:00.818Z,100678.72
2023-06-22T10:21:03.293Z,100676.75
2023-06-22T10:24:08.621Z,100673.47
2023-06-22T10:27:14.627Z,100672.94
2023-06-22T10:30:17.324Z,100673.66
2023-06-22T10:33:20.129Z,100671.97
2023-06-22T10:36:23.155Z,100669.47
2023-06-22T10:39:25.487Z,100672.78
2023-06-22T10:42:27.896Z,100668.84
2023-06-22T10:45:30.693Z,100673.25
2023-06-22T10:48:33.291Z,100672.81
2023-06-22T10:51:35.766Z,100665.19
2023-06-22T10:54:38.803Z,100666.53
2023-06-22T10:57:44.811Z,100661.16
2023-06-22T11:00:47.354Z,100663.84
2023-06-22T11:03:49.739Z,100658.50
2023-06-22T11:06:52.182Z,100666.81
2023-06-22T11:09:54.535Z,100666.44
2023-06-22T11:12:58.990Z,100658.31
2023-06-22T11:16:01.446Z,100653.03
2023-06-22T11:19:05.500Z,100648.13
2023-06-22T11:22:07.881Z,100648.22
2023-06-22T11:25:10.422Z,100647.38
2023-06-22T11:28:12.897Z,100642.19
2023-06-22T11:34:20.907Z,100645.34
2023-06-22T11:37:23.243Z,100640.84
2023-06-22T11:40:25.617Z,100641.34
2023-06-22T11:43:28.141Z,100638.22
2023-06-22T11:46:30.592Z,100630.91
2023-06-22T11:49:32.957Z,100627.25
2023-06-22T11:52:37.082Z,100635.34
2023-06-22T11:55:39.504Z,100636.22
2023-06-22T11:58:41.872Z,100622.56
2023-06-22T12:01:44.205Z,100632.50
2023-06-22T12:04:47.613Z,100620.66
2023-06-22T12:07:50.088Z,100618.75
2023-06-22T12:10:52.986Z,100615.59
2023-06-22T12:13:55.546Z,100616.88
2023-06-22T12:16:58.151Z,100610.28
2023-06-22T12:20:00.589Z,100610.41
2023-06-22T12:23:02.968Z,100607.91
2023-06-22T12:26:05.356Z,100603.72
2023-06-22T12:29:07.720Z,100603.34
2023-06-22T12:32:10.096Z,100599.41
2023-06-22T12:35:15.159Z,100593.97
2023-06-22T12:38:17.733Z,100594.53
2023-06-22T12:41:20.149Z,100589.81
2023-06-22T12:44:22.591Z,100588.59
2023-06-22T12:47:25.029Z,100591.72
2023-06-22T12:50:27.648Z,100582.66
2023-06-22T12:53:30.173Z,100589.09
2023-06-22T12:56:32.643Z,100583.28
2023-06-22T12:59:35.013Z,100580.78
2023-06-22T13:02:38.376Z,100562.56
2023-06-22T13:05:40.875Z,100570.25
2023-06-22T13:11:48.734Z,100566.19
2023-06-22T13:14:51.095Z,100555.66
2023-06-22T13:17:53.599Z,100548.69
2023-06-22T13:20:56.035Z,100541.78
2023-06-22T13:23:58.970Z,100542.59
2023-06-22T13:27:01.357Z,100538.41
2023-06-22T13:30:04.025Z,100536.69
2023-06-22T13:33:06.467Z,100541.63
2023-06-22T13:36:09.057Z,100535.69
2023-06-22T13:39:11.438Z,100539.84
2023-06-22T13:42:13.788Z,100535.13
2023-06-22T13:45:18.418Z,100531.06
2023-06-22T13:48:20.797Z,100528.66
2023-06-22T13:51:23.187Z,100524.72
2023-06-22T13:54:30.094Z,100517.94
2023-06-22T13:57:32.987Z,100516.16
2023-06-22T14:00:35.378Z,100518.41
2023-06-22T14:03:37.931Z,100513.38
2023-06-22T14:06:40.292Z,100515.72
2023-06-22T14:09:42.663Z,100512.00
2023-06-22T14:12:45.915Z,100512.69
2023-06-22T14:15:49.425Z,100518.50
2023-06-22T14:18:52.369Z,100511.22
2023-06-22T14:21:55.837Z,100505.09
2023-06-22T14:24:59.917Z,100498.28
2023-06-22T14:28:02.378Z,100488.03
2023-06-22T14:31:04.980Z,100493.69
2023-06-22T14:34:07.558Z,100492.59
2023-06-22T14:37:14.142Z,100494.66
2023-06-22T14:40:16.667Z,100491.84
2023-06-22T14:43:19.063Z,100490.91
2023-06-22T14:46:21.793Z,100497.00
2023-06-22T14:49:24.419Z,100483.75
2023-06-22T14:52:26.985Z,100482.25
2023-06-22T14:55:29.428Z,100478.53
2023-06-22T14:58:34.429Z,100473.19
2023-06-22T15:01:37.058Z,100472.22
2023-06-22T15:04:39.569Z,100477.44
2023-06-22T15:07:42.038Z,100467.16
2023-06-22T15:10:44.465Z,100470.09
2023-06-22T15:13:46.886Z,100465.88
2023-06-22T15:16:49.350Z,100460.59
2023-06-22T15:19:51.709Z,100462.13
2023-06-22T15:22:54.132Z,100455.53
2023-06-22T15:25:57.219Z,100462.94
2023-06-22T15:28:59.572Z,100451.44
2023-06-22T15:32:02.205Z,100453.88
2023-06-22T15:35:05.047Z,100443.34
2023-06-22T15:38:07.419Z,100448.34
2023-06-22T15:41:09.822Z,100442.13
2023-06-22T15:44:12.242Z,100450.47
2023-06-22T15:47:14.604Z,100437.94
2023-06-22T15:50:17.045Z,100443.78
2023-06-22T15:53:19.452Z,100443.03
2023-06-22T15:56:22.246Z,100441.16
2023-06-22T15:59:24.948Z,100445.97
2023-06-22T16:02:28.350Z,100446.44
2023-06-22T16:05:30.818Z,100442.06
2023-06-22T16:08:34.778Z,100446.31
2023-06-22T16:11:37.234Z,100436.25
2023-06-22T16:14:41.753Z,100430.22
2023-06-22T16:17:44.120Z,100431.59
2023-06-22T16:20:47.435Z,100438.66
2023-06-22T16:23:49.809Z,100431.84
2023-06-22T16:26:52.211Z,100430.94
2023-06-22T16:29:54.622Z,100433.09
2023-06-22T16:33:00.562Z,100427.94
2023-06-22T16:36:03.185Z,100430.84
2023-06-22T16:39:05.839Z,100434.78
2023-06-22T16:42:08.343Z,100430.41
2023-06-22T16:45:10.788Z,100435.31
2023-06-22T16:48:13.380Z,100427.22
2023-06-22T16:51:15.799Z,100430.25
2023-06-22T16:54:18.167Z,100425.75
2023-06-22T16:57:20.686Z,100415.09
2023-06-22T17:00:23.332Z,100430.75
2023-06-22T17:03:34.344Z,100435.75
2023-06-22T17:06:39.062Z,100436.53
2023-06-22T17:09:41.681Z,100430.69
2023-06-22T17:12:44.025Z,100433.78
2023-06-22T17:15:46.814Z,100422.00
2023-06-22T17:18:50.786Z,100419.34
2023-06-22T17:21:53.302Z,100423.34
2023-06-22T17:24:55.784Z,100421.47
2023-06-22T17:28:04.552Z,100423.69
2023-06-22T17:31:11.306Z,100425.19
2023-06-22T17:34:16.213Z,100419.09
2023-06-22T17:37:18.624Z,100421.66
2023-06-22T17:40:22.431Z,100421.06
2023-06-22T17:43:24.825Z,100413.22
2023-06-22T17:46:27.325Z,100414.78
2023-06-22T17:49:30.704Z,100418.91
2023-06-22T17:52:33.143Z,100410.28
2023-06-22T17:55:35.472Z,100413.53
2023-06-22T17:58:37.860Z,100409.00
2023-06-22T18:01:40.356Z,100398.34
2023-06-22T18:04:43.788Z,100404.22
2023-06-22T18:07:46.184Z,100388.91
2023-06-22T18:10:48.604Z,100390.88
2023-06-22T18:13:50.977Z,100399.41
2023-06-22T18:16:53.636Z,100405.84
2023-06-22T18:20:00.969Z,100727.69
2023-06-22T18:23:03.362Z,100414.59
2023-06-22T18:26:05.795Z,100407.81
2023-06-22T18:29:08.265Z,100398.84
2023-06-22T18:32:10.669Z,100400.13
2023-06-22T18:35:13.068Z,100397.28
2023-06-22T18:38:15.426Z,100400.94
2023-06-22T18:41:37.519Z,100401.59
2023-06-22T18:44:43.204Z,100404.75
2023-06-22T18:47:46.379Z,100400.97
2023-06-22T18:50:50.291Z,100400.34
2023-06-22T18:54:03.619Z,100396.69
2023-06-22T18:57:25.644Z,100400.16
2023-06-22T19:00:33.841Z,100408.19
2023-06-22T19:03:36.417Z,100406.41
2023-06-22T19:06:54.159Z,100426.31
2023-06-22T19:10:22.510Z,100425.03
2023-06-22T19:13:25.019Z,100430.19
2023-06-22T19:16:30.561Z,100421.97
2023-06-22T19:19:36.027Z,100424.59
2023-06-22T19:22:48.044Z,100428.59
2023-06-22T19:25:50.503Z,100428.75
2023-06-22T19:28:57.614Z,100442.53
2023-06-22T19:32:00.129Z,100448.91
2023-06-22T19:35:03.049Z,100439.56
2023-06-22T19:38:05.693Z,100436.09
2023-06-22T19:41:08.899Z,100433.59
2023-06-22T19:44:11.393Z,100444.88
2023-06-22T19:47:14.203Z,100445.59
2023-06-22T19:50:18.032Z,100452.44
2023-06-22T19:53:20.434Z,100447.91
2023-06-22T19:56:23.004Z,100452.56
2023-06-22T19:59:26.551Z,100450.31
2023-06-22T20:02:30.369Z,100439.69
2023-06-22T20:05:34.924Z,100450.34
2023-06-22T20:08:50.779Z,100453.00
2023-06-22T20:11:57.315Z,100449.69
2023-06-22T20:15:15.085Z,100451.72
2023-06-22T20:18:17.473Z,100451.94
2023-06-22T20:21:19.872Z,100458.34
2023-06-22T20:24:23.197Z,100455.91
2023-06-22T20:27:26.532Z,100453.63
2023-06-22T20:30:29.057Z,100449.97
2023-06-22T20:33:32.087Z,100447.91
2023-06-22T20:36:34.517Z,100448.88
2023-06-22T20:39:37.453Z,100433.25
2023-06-22T20:42:39.944Z,100449.22
2023-06-22T20:45:42.334Z,100445.56
2023-06-22T20:48:45.563Z,100445.69
2023-06-22T20:51:47.962Z,100438.06
2023-06-22T20:54:50.471Z,100436.28
2023-06-22T20:57:53.293Z,100428.06
2023-06-22T21:01:01.659Z,100431.53
2023-06-22T21:04:04.443Z,100422.16
2023-06-22T21:07:07.026Z,100421.06
2023-06-22T21:10:09.844Z,100427.06
2023-06-22T21:13:12.227Z,100419.06
2023-06-22T21:16:14.791Z,100418.41
2023-06-22T21:19:17.225Z,100428.09
2023-06-22T21:22:20.196Z,100424.13
2023-06-22T21:25:22.579Z,100422.25
2023-06-22T21:28:26.089Z,100416.94
2023-06-22T21:31:28.545Z,100425.97
2023-06-22T21:34:30.979Z,100425.78
2023-06-22T21:37:33.342Z,100423.97
2023-06-22T21:40:35.731Z,100422.16
2023-06-22T21:43:38.096Z,100421.59
2023-06-22T21:46:40.533Z,100417.59
2023-06-22T21:49:42.923Z,100416.13
2023-06-22T21:52:45.473Z,100422.31
2023-06-22T21:55:47.996Z,100413.38
2023-06-22T21:58:50.388Z,100396.72
2023-06-22T22:01:52.894Z,100404.91
2023-06-22T22:04:55.276Z,100405.13
2023-06-22T22:07:57.684Z,100409.81
2023-06-22T22:11:00.072Z,100417.78
2023-06-22T22:14:02.538Z,100422.28
2023-06-22T22:17:05.165Z,100420.13
2023-06-22T22:20:10.188Z,100416.38
2023-06-22T22:23:12.564Z,100412.94
2023-06-22T22:26:14.993Z,100410.78
2023-06-22T22:29:17.409Z,100408.69
2023-06-22T22:32:19.859Z,100405.75
2023-06-22T22:35:22.381Z,100404.50
2023-06-22T22:38:24.796Z,100409.19
2023-06-22T22:41:27.360Z,100408.47
2023-06-22T22:44:29.809Z,100407.44
2023-06-22T22:47:32.283Z,100393.31
2023-06-22T22:50:34.852Z,100393.66
2023-06-22T22:53:37.400Z,100378.56
2023-06-22T22:56:39.756Z,100365.19
2023-06-22T22:59:42.246Z,100373.63
2023-06-22T23:02:44.815Z,100371.25
2023-06-22T23:05:47.636Z,100372.94
2023-06-22T23:08:57.026Z,100358.13
2023-06-22T23:11:59.516Z,100356.59
2023-06-22T23:15:02.229Z,100348.63
2023-06-22T23:18:04.639Z,100344.91
2023-06-22T23:21:08.125Z,100344.47
2023-06-22T23:24:10.531Z,100339.94
2023-06-22T23:27:15.944Z,100332.28
2023-06-22T23:30:18.411Z,100327.84
2023-06-22T23:33:22.508Z,100316.28
2023-06-22T23:36:26.476Z,100316.00
2023-06-22T23:39:28.909Z,100333.00
2023-06-22T23:42:31.284Z,100337.00
2023-06-22T23:45:33.940Z,100332.78
2023-06-22T23:48:36.598Z,100322.28
2023-06-22T23:51:39.000Z,100312.03
2023-06-22T23:54:41.341Z,100309.06
2023-06-22T23:57:44.136Z,100318.22
